Time;durP1;ratioP1;P1;durP2;ratioP2;P2;SDS_P1;SDS_P2;PMS_P1;PMS_P2;Temp;Humidity;BMP_temperature;BMP_pressure;BME280_temperature;BME280_humidity;BME280_pressure;Samples;Min_cycle;Max_cycle;Signal;HPM_P1;HPM_P2
2023/11/27 00:01:42;;;;;;;0.15;0.15;;;;;;;1.75;55.91;101109.06;5015445;28;20108;-84
2023/11/27 00:04:08;;;;;;;0.10;0.10;;;;;;;1.70;55.83;101098.03;5015533;28;20030;-85
2023/11/27 00:06:33;;;;;;;0.10;0.10;;;;;;;1.76;56.30;101104.78;5033134;28;20053;-85
2023/11/27 00:08:59;;;;;;;0.20;0.20;;;;;;;1.65;56.07;101089.56;5015316;28;20025;-85
2023/11/27 00:11:25;;;;;;;0.10;0.10;;;;;;;1.71;56.01;101115.03;5030966;28;20431;-85
2023/11/27 00:13:50;;;;;;;0.10;0.10;;;;;;;1.71;56.44;101120.13;5031479;28;20503;-85
2023/11/27 00:16:16;;;;;;;0.20;0.20;;;;;;;1.57;56.77;101109.97;4998525;28;20033;-86
2023/11/27 00:18:46;;;;;;;0.10;0.10;;;;;;;1.64;56.89;101123.56;4998576;28;20072;-85
2023/11/27 00:21:13;;;;;;;0.20;0.20;;;;;;;1.52;56.11;101144.03;4999525;28;20026;-84
2023/11/27 00:23:39;;;;;;;0.10;0.10;;;;;;;1.49;55.09;101121.09;5031085;28;20038;-87
2023/11/27 00:26:06;;;;;;;0.10;0.10;;;;;;;1.59;54.35;101135.50;5014424;28;20029;-86
2023/11/27 00:28:32;;;;;;;0.10;0.10;;;;;;;1.54;54.42;101127.00;5014664;28;20549;-85
2023/11/27 00:30:57;;;;;;;0.10;0.10;;;;;;;1.60;55.11;101144.84;4998294;28;20037;-85
2023/11/27 00:33:23;;;;;;;0.20;0.20;;;;;;;1.58;54.62;101129.56;4998167;28;20063;-85
2023/11/27 00:35:49;;;;;;;0.20;0.20;;;;;;;1.62;54.75;101150.78;5014454;28;20021;-87
2023/11/27 00:38:14;;;;;;;0.20;0.20;;;;;;;1.35;55.22;101136.41;5014539;28;20072;-87
2023/11/27 00:40:40;;;;;;;0.20;0.20;;;;;;;1.52;55.21;101165.28;5030506;28;20037;-85
2023/11/27 00:43:05;;;;;;;0.10;0.10;;;;;;;1.50;55.86;101156.78;5014351;28;20041;-85
2023/11/27 00:45:32;;;;;;;0.10;0.10;;;;;;;1.51;55.76;101170.38;5014025;28;20048;-85
2023/11/27 00:47:59;;;;;;;0.20;0.20;;;;;;;1.28;56.16;101145.81;5014811;28;20634;-86
2023/11/27 00:50:25;;;;;;;0.10;0.10;;;;;;;1.60;56.16;101167.81;5031706;28;20525;-85
2023/11/27 00:52:51;;;;;;;0.10;0.10;;;;;;;1.49;56.76;101164.44;5014429;28;20026;-86
2023/11/27 00:55:16;;;;;;;0.10;0.10;;;;;;;1.29;57.39;101137.31;5013615;28;20075;-86
2023/11/27 00:57:42;;;;;;;0.10;0.10;;;;;;;1.49;57.26;101174.63;5030996;28;20033;-86
2023/11/27 01:00:10;;;;;;;0.10;0.10;;;;;;;1.28;57.11;101145.81;5030802;28;20039;-85
2023/11/27 01:02:37;;;;;;;0.10;0.10;;;;;;;1.36;57.15;101171.25;5030174;28;20101;-85
2023/11/27 01:05:03;;;;;;;0.20;0.20;;;;;;;1.24;57.49;101173.84;4997682;28;20515;-85
2023/11/27 01:07:29;;;;;;;0.10;0.10;;;;;;;1.33;57.79;101189.97;5030840;28;20107;-85
2023/11/27 01:09:55;;;;;;;0.20;0.20;;;;;;;1.29;57.38;101198.47;5029794;28;20411;-85
2023/11/27 01:12:21;;;;;;;0.10;0.10;;;;;;;1.28;57.55;101185.72;4997391;28;20021;-85
2023/11/27 01:14:46;;;;;;;0.10;0.10;;;;;;;1.41;57.08;101195.91;5013454;28;20132;-85
2023/11/27 01:17:12;;;;;;;0.20;0.20;;;;;;;1.42;57.64;101201.84;5013739;28;20025;-85
2023/11/27 01:19:38;;;;;;;0.10;0.10;;;;;;;1.55;57.14;101200.09;5013562;28;20029;-85
2023/11/27 01:22:03;;;;;;;0.10;0.10;;;;;;;1.46;56.99;101184.81;5013931;28;20021;-86
2023/11/27 01:24:29;;;;;;;0.10;0.10;;;;;;;1.53;57.86;101201.81;4996997;28;20044;-85
2023/11/27 01:26:55;;;;;;;0.10;0.10;;;;;;;1.60;58.23;101194.16;4997155;28;20034;-86
2023/11/27 01:29:23;;;;;;;0.20;0.20;;;;;;;1.51;57.77;101203.53;5030144;28;20040;-85
2023/11/27 01:31:49;;;;;;;0.10;0.10;;;;;;;1.62;58.46;101207.75;5013827;28;20057;-85
2023/11/27 01:34:15;;;;;;;0.20;0.20;;;;;;;1.48;57.93;101203.53;5012650;28;20134;-86
2023/11/27 01:36:42;;;;;;;0.20;0.20;;;;;;;1.52;58.10;101210.31;4997131;28;20029;-85
2023/11/27 01:39:09;;;;;;;0.10;0.10;;;;;;;1.39;58.38;101200.16;5013280;28;20025;-86
2023/11/27 01:41:35;;;;;;;0.10;0.10;;;;;;;1.29;58.56;101193.38;5013262;28;20032;-85
2023/11/27 01:44:00;;;;;;;0.20;0.20;;;;;;;1.29;58.27;101183.19;4997000;28;20029;-85
2023/11/27 01:46:29;;;;;;;0.20;0.20;;;;;;;1.25;59.54;101211.22;5029498;28;20076;-85
2023/11/27 01:48:55;;;;;;;0.20;0.20;;;;;;;1.16;59.28;101199.31;5013582;28;20105;-85
2023/11/27 01:51:25;;;;;;;0.10;0.10;;;;;;;1.18;58.99;101209.50;4996998;28;20499;-86
2023/11/27 01:53:50;;;;;;;0.10;0.10;;;;;;;1.08;60.15;101209.56;4997011;28;20512;-85
2023/11/27 01:56:16;;;;;;;0.10;0.10;;;;;;;1.04;60.23;101214.63;5013224;28;20025;-85
2023/11/27 01:58:46;;;;;;;0.20;0.20;;;;;;;0.99;60.24;101212.09;5012982;28;20084;-86
2023/11/27 02:01:11;;;;;;;0.10;0.10;;;;;;;0.95;59.63;101200.19;5030842;28;20041;-86
2023/11/27 02:03:37;;;;;;;0.10;0.10;;;;;;;1.04;59.16;101204.44;4996618;28;20029;-85
2023/11/27 02:06:02;;;;;;;0.10;0.10;;;;;;;0.98;59.23;101204.44;5013101;28;20038;-85
2023/11/27 02:08:28;;;;;;;0.10;0.10;;;;;;;1.02;58.80;101218.88;5029264;28;20029;-85
2023/11/27 02:10:54;;;;;;;0.10;0.10;;;;;;;0.98;59.07;101206.97;5012988;28;20060;-85
2023/11/27 02:13:19;;;;;;;0.20;0.20;;;;;;;0.95;58.76;101187.47;4996655;28;20121;-85
2023/11/27 02:15:45;;;;;;;0.10;0.10;;;;;;;1.17;58.41;101218.84;5012627;28;20414;-85
2023/11/27 02:18:11;;;;;;;0.10;0.10;;;;;;;1.10;58.54;101214.66;4996611;28;20030;-85
2023/11/27 02:20:36;;;;;;;0.10;0.10;;;;;;;1.05;58.40;101203.59;5013013;28;20029;-86
2023/11/27 02:23:05;;;;;;;0.10;0.10;;;;;;;1.19;58.83;101221.44;5012548;28;20492;-85
2023/11/27 02:25:31;;;;;;;0.10;0.10;;;;;;;1.05;58.19;101211.22;4996915;28;20033;-85
2023/11/27 02:27:57;;;;;;;0.10;0.10;;;;;;;1.08;58.57;101232.50;4996436;28;20048;-86
2023/11/27 02:30:22;;;;;;;0.20;0.20;;;;;;;1.12;58.29;101225.69;4996292;28;20033;-85
2023/11/27 02:32:48;;;;;;;0.10;0.10;;;;;;;1.12;58.54;101225.69;5012668;28;20037;-85
2023/11/27 02:35:13;;;;;;;0.10;0.10;;;;;;;1.12;58.68;101229.06;5012725;28;20029;-85
2023/11/27 02:37:39;;;;;;;0.20;0.20;;;;;;;1.00;58.94;101218.91;5028412;28;20037;-85
2023/11/27 02:40:05;;;;;;;0.10;0.10;;;;;;;1.01;58.83;101217.19;5012820;28;20025;-84
2023/11/27 02:42:31;;;;;;;0.20;0.20;;;;;;;1.01;58.85;101212.94;5030309;28;20491;-85
2023/11/27 02:44:57;;;;;;;0.20;0.20;;;;;;;1.20;58.25;101236.72;4995924;28;20053;-85
2023/11/27 02:47:22;;;;;;;0.20;0.20;;;;;;;1.11;59.13;101218.88;5000377;28;20029;-85
2023/11/27 02:49:48;;;;;;;0.10;0.10;;;;;;;1.20;57.59;101234.16;5016452;28;20045;-86
2023/11/27 02:52:14;;;;;;;0.10;0.10;;;;;;;1.25;58.05;101231.59;5016320;28;20037;-85
2023/11/27 02:54:39;;;;;;;0.10;0.10;;;;;;;1.27;58.01;101224.81;5016500;28;20030;-85
2023/11/27 02:57:05;;;;;;;0.10;0.10;;;;;;;1.38;58.05;101243.50;5032930;28;20511;-85
2023/11/27 02:59:30;;;;;;;0.10;0.10;;;;;;;1.40;57.03;101232.44;5000202;28;20025;-85
2023/11/27 03:01:56;;;;;;;0.20;0.20;;;;;;;1.31;56.67;101227.34;5016284;28;20407;-85
2023/11/27 03:04:25;;;;;;;0.10;0.10;;;;;;;1.51;57.41;101236.69;5016443;28;20038;-85
2023/11/27 03:06:51;;;;;;;0.10;0.10;;;;;;;1.47;56.69;101229.88;5000614;28;20029;-85
2023/11/27 03:09:17;;;;;;;0.10;0.10;;;;;;;1.47;57.65;101232.41;5016241;28;20030;-85
2023/11/27 03:11:43;;;;;;;0.20;0.20;;;;;;;1.55;56.96;101226.44;5016388;28;20084;-86
2023/11/27 03:14:08;;;;;;;0.20;0.20;;;;;;;1.60;56.81;101234.09;5016399;28;20105;-85
2023/11/27 03:16:34;;;;;;;0.10;0.10;;;;;;;1.62;56.50;101227.28;4999725;28;20147;-85
2023/11/27 03:18:59;;;;;;;0.10;0.10;;;;;;;1.65;56.87;101237.47;4983529;28;20638;-85
2023/11/27 03:21:26;;;;;;;0.10;0.10;;;;;;;1.60;57.06;101218.81;5015496;28;20026;-86
2023/11/27 03:23:51;;;;;;;0.13;0.13;;;;;;;1.71;56.97;101227.28;5015952;28;20083;-85
2023/11/27 03:26:18;;;;;;;0.20;0.20;;;;;;;1.66;57.51;101194.09;5016313;28;20116;-85
2023/11/27 03:28:43;;;;;;;0.10;0.10;;;;;;;1.73;56.86;101195.78;5032133;28;20032;-85
2023/11/27 03:31:09;;;;;;;0.10;0.10;;;;;;;1.72;57.06;101180.50;5015823;28;20042;-85
2023/11/27 03:33:34;;;;;;;0.10;0.10;;;;;;;1.70;57.60;101169.47;5032082;28;20471;-85
2023/11/27 03:36:00;;;;;;;0.20;0.20;;;;;;;1.79;56.70;101184.72;5015430;28;20026;-86
2023/11/27 03:38:25;;;;;;;0.20;0.20;;;;;;;2.00;56.89;101209.31;5033337;28;20025;-85
2023/11/27 03:40:51;;;;;;;0.10;0.10;;;;;;;1.98;56.46;101209.31;5015463;28;20040;-86
2023/11/27 03:43:17;;;;;;;0.20;0.20;;;;;;;2.08;56.89;101211.84;5032121;28;20037;-85
2023/11/27 03:45:42;;;;;;;0.10;0.10;;;;;;;2.11;56.62;101217.75;4999108;28;20052;-83
2023/11/27 03:48:08;;;;;;;0.10;0.10;;;;;;;2.07;56.86;101205.88;4999206;28;20029;-83
2023/11/27 03:50:33;;;;;;;0.10;0.10;;;;;;;2.04;57.12;101205.03;5015198;28;20064;-83
2023/11/27 03:52:59;;;;;;;0.20;0.20;;;;;;;2.13;56.60;101199.88;5015529;28;20041;-83
2023/11/27 03:55:25;;;;;;;0.20;0.20;;;;;;;2.17;56.87;101225.41;5032677;28;20029;-83
2023/11/27 03:57:50;;;;;;;0.10;0.10;;;;;;;2.17;57.72;101212.63;5031139;28;20060;-83
2023/11/27 04:00:19;;;;;;;0.20;0.20;;;;;;;2.24;57.45;101209.16;4998982;28;20067;-83
2023/11/27 04:02:45;;;;;;;0.20;0.20;;;;;;;2.21;56.84;101226.22;4983833;28;20489;-83
2023/11/27 04:05:10;;;;;;;0.20;0.20;;;;;;;2.23;57.16;101217.69;4998577;28;20165;-84
2023/11/27 04:07:36;;;;;;;0.10;0.10;;;;;;;2.37;57.34;101221.91;5015159;28;20479;-87
2023/11/27 04:10:01;;;;;;;0.10;0.10;;;;;;;2.45;57.02;101226.06;5015252;28;20493;-86
2023/11/27 04:12:27;;;;;;;0.10;0.10;;;;;;;2.27;56.91;101213.44;5014910;28;20419;-87
2023/11/27 04:14:53;;;;;;;0.10;0.10;;;;;;;2.15;57.21;101228.78;5031078;28;20064;-85
2023/11/27 04:17:19;;;;;;;0.10;0.10;;;;;;;2.11;57.40;101238.19;5031265;28;20116;-86
2023/11/27 04:19:44;;;;;;;0.20;0.20;;;;;;;1.99;57.86;101238.25;5014597;28;20108;-88
2023/11/27 04:22:10;;;;;;;0.10;0.10;;;;;;;1.82;58.23;101225.53;5014997;28;20033;-86
2023/11/27 04:24:35;;;;;;;0.20;0.20;;;;;;;1.96;58.03;101238.22;4998533;28;20040;-87
2023/11/27 04:27:01;;;;;;;0.20;0.20;;;;;;;1.77;58.83;101237.47;5014823;28;20080;-87
2023/11/27 04:29:27;;;;;;;0.20;0.20;;;;;;;1.71;59.28;101217.06;5015195;28;20022;-87
2023/11/27 04:31:52;;;;;;;0.20;0.20;;;;;;;1.79;60.24;101247.66;5030668;28;20029;-87
2023/11/27 04:34:18;;;;;;;0.20;0.20;;;;;;;1.73;60.06;101245.97;5014793;28;20025;-86
2023/11/27 04:36:43;;;;;;;0.10;0.10;;;;;;;1.69;60.49;101240.03;5014569;28;20088;-86
2023/11/27 04:39:14;;;;;;;0.10;0.10;;;;;;;1.63;60.93;101239.19;5031384;28;20021;-87
2023/11/27 04:41:42;;;;;;;0.10;0.10;;;;;;;1.70;60.92;101236.63;5015325;28;20034;-86
2023/11/27 04:44:08;;;;;;;0.20;0.20;;;;;;;1.73;61.85;101245.97;5015161;28;20377;-86
2023/11/27 04:46:34;;;;;;;0.20;0.20;;;;;;;1.69;61.44;101241.75;5014038;28;20137;-87
2023/11/27 04:48:59;;;;;;;0.10;0.10;;;;;;;1.67;61.67;101240.88;4974067;28;20518;-88
2023/11/27 04:51:25;;;;;;;0.13;0.13;;;;;;;1.71;61.48;101234.91;4996151;28;20515;-86
2023/11/27 04:53:50;;;;;;;0.20;0.20;;;;;;;1.58;61.67;101225.63;4991616;28;20509;-91
2023/11/27 04:56:16;;;;;;;0.10;0.10;;;;;;;1.65;61.21;101242.56;4991392;28;20499;-89
2023/11/27 04:58:42;;;;;;;0.10;0.10;;;;;;;1.69;61.35;101246.84;4992171;28;20050;-89
2023/11/27 05:01:08;;;;;;;0.10;0.10;;;;;;;1.72;61.19;101254.47;4976123;28;20460;-92
2023/11/27 05:03:34;;;;;;;0.10;0.10;;;;;;;1.81;60.88;101254.44;4993774;28;20117;-91
2023/11/27 05:05:59;;;;;;;0.10;0.10;;;;;;;1.64;61.35;101230.69;5030129;28;20040;-90
2023/11/27 05:08:25;;;;;;;0.10;0.10;;;;;;;1.87;61.49;101259.53;5014177;28;20033;-91
2023/11/27 05:10:51;;;;;;;0.10;0.10;;;;;;;1.88;61.63;101251.03;4993530;28;20140;-90
2023/11/27 05:13:17;;;;;;;0.10;0.10;;;;;;;1.87;61.45;101258.66;5009794;28;20026;-90
2023/11/27 05:15:43;;;;;;;0.10;0.10;;;;;;;1.81;61.68;101259.56;5006921;28;20088;-88
2023/11/27 05:18:08;;;;;;;0.20;0.20;;;;;;;1.76;61.81;101256.16;5012830;28;20071;-90
2023/11/27 05:20:34;;;;;;;0.20;0.20;;;;;;;1.60;62.11;101237.50;4993647;28;20026;-87
2023/11/27 05:23:01;;;;;;;0.20;0.20;;;;;;;1.79;62.21;101260.41;5013445;28;20034;-89
2023/11/27 05:25:27;;;;;;;0.20;0.20;;;;;;;1.84;62.44;101264.63;4990642;28;20115;-87
2023/11/27 05:27:53;;;;;;;0.10;0.10;;;;;;;1.82;62.43;101252.75;4995635;28;20041;-84
2023/11/27 05:30:19;;;;;;;0.10;0.10;;;;;;;1.90;62.59;101259.53;5017739;28;20030;-87
2023/11/27 05:32:47;;;;;;;0.20;0.20;;;;;;;1.87;62.61;101266.31;5017931;28;20068;-92
2023/11/27 05:35:13;;;;;;;0.20;0.20;;;;;;;1.75;62.66;101244.25;4993239;28;20029;-86
2023/11/27 05:37:39;;;;;;;0.10;0.10;;;;;;;1.96;62.48;101269.69;5005607;28;20545;-92
2023/11/27 05:40:06;;;;;;;0.10;0.10;;;;;;;2.06;62.40;101269.66;4993657;28;20941;-87
2023/11/27 05:42:39;;;;;;;0.10;0.10;;;;;;;1.92;62.67;101254.41;5009787;28;20044;-82
2023/11/27 05:45:10;;;;;;;0.20;0.20;;;;;;;1.96;62.63;101269.69;4993725;28;20173;-85
2023/11/27 05:47:36;;;;;;;0.10;0.10;;;;;;;2.05;62.55;101285.84;5017513;28;20124;-93
2023/11/27 05:50:02;;;;;;;0.10;0.10;;;;;;;2.03;62.06;101259.47;4993150;28;20100;-85
2023/11/27 05:52:28;;;;;;;0.10;0.10;;;;;;;2.21;62.54;101284.94;4993989;28;20030;-92
2023/11/27 05:54:54;;;;;;;0.20;0.20;;;;;;;2.30;61.92;101292.56;5009122;28;20034;-90
2023/11/27 05:57:19;;;;;;;0.20;0.20;;;;;;;2.26;61.95;101290.84;4988442;28;20522;-88
2023/11/27 05:59:45;;;;;;;0.20;0.20;;;;;;;2.23;61.75;101267.91;5008729;28;20499;-89
2023/11/27 06:02:11;;;;;;;0.20;0.20;;;;;;;2.46;61.36;101301.84;5012247;28;20439;-91
2023/11/27 06:04:37;;;;;;;0.10;0.10;;;;;;;2.33;61.62;101297.63;4991327;28;20064;-91
2023/11/27 06:07:02;;;;;;;0.10;0.10;;;;;;;2.46;61.87;101304.41;4992771;28;20456;-92
2023/11/27 06:09:28;;;;;;;0.20;0.20;;;;;;;2.46;61.14;101295.88;5009959;28;20072;-91
2023/11/27 06:11:54;;;;;;;0.10;0.10;;;;;;;2.39;61.14;101292.50;5030540;28;20029;-90
2023/11/27 06:14:20;;;;;;;0.10;0.10;;;;;;;2.34;60.92;101276.34;5009935;28;20052;-85
2023/11/27 06:16:45;;;;;;;0.20;0.20;;;;;;;2.46;61.17;101300.97;5009853;28;20483;-83
2023/11/27 06:19:11;;;;;;;0.10;0.10;;;;;;;2.41;61.30;101280.59;5001250;28;20063;-82
2023/11/27 06:21:37;;;;;;;0.10;0.10;;;;;;;2.53;60.46;101292.44;5001026;28;20044;-87
2023/11/27 06:24:02;;;;;;;0.20;0.20;;;;;;;2.34;60.43;101280.63;5010692;28;20026;-83
2023/11/27 06:26:28;;;;;;;0.20;0.20;;;;;;;2.32;60.44;101303.59;5008153;28;20029;-92
2023/11/27 06:28:53;;;;;;;0.20;0.20;;;;;;;2.35;60.68;101308.69;4977719;28;20481;-90
2023/11/27 06:31:19;;;;;;;0.20;0.20;;;;;;;2.21;60.75;101297.69;4976886;28;20033;-87
2023/11/27 06:33:45;;;;;;;0.10;0.10;;;;;;;2.17;60.28;101313.91;4958710;28;20038;-87
2023/11/27 06:36:11;;;;;;;0.20;0.20;;;;;;;2.22;60.34;101312.16;4991043;28;20397;-83
2023/11/27 06:38:38;;;;;;;0.20;0.20;;;;;;;2.43;60.36;101319.72;5030707;28;20577;-90
2023/11/27 06:41:05;;;;;;;0.20;0.20;;;;;;;2.38;59.70;101307.84;4998955;28;20088;-90
2023/11/27 06:43:31;;;;;;;0.20;0.20;;;;;;;2.32;59.46;101283.19;5003906;28;20030;-87
2023/11/27 06:45:57;;;;;;;0.20;0.20;;;;;;;2.47;59.68;101323.97;5001972;28;20054;-91
2023/11/27 06:48:22;;;;;;;0.20;0.20;;;;;;;2.47;59.22;101329.09;4984652;28;20037;-92
2023/11/27 06:50:49;;;;;;;0.20;0.20;;;;;;;2.55;58.70;101337.53;4965891;28;20037;-90
2023/11/27 06:53:15;;;;;;;0.20;0.20;;;;;;;2.64;58.30;101331.53;4984115;28;20499;-90
2023/11/27 06:55:41;;;;;;;0.10;0.10;;;;;;;2.72;57.85;101341.72;4983724;28;20033;-90
2023/11/27 06:58:07;;;;;;;0.20;0.20;;;;;;;2.80;57.53;101343.38;4982783;28;20037;-89
2023/11/27 07:00:34;;;;;;;0.20;0.20;;;;;;;2.90;56.83;101343.34;4974638;28;20029;-91
2023/11/27 07:02:59;;;;;;;0.10;0.10;;;;;;;2.95;57.10;101336.47;4975427;28;20452;-86
2023/11/27 07:05:25;;;;;;;0.20;0.20;;;;;;;3.04;56.04;101326.19;4989201;28;20046;-86
2023/11/27 07:07:50;;;;;;;0.20;0.20;;;;;;;3.17;55.95;101341.47;4958021;28;20030;-92
2023/11/27 07:10:16;;;;;;;0.20;0.20;;;;;;;3.15;56.08;101338.06;4973206;28;20851;-85
2023/11/27 07:12:42;;;;;;;0.20;0.20;;;;;;;3.10;55.71;101339.78;4990052;28;20026;-91
2023/11/27 07:15:10;;;;;;;0.20;0.20;;;;;;;3.20;54.86;101337.19;4958237;28;20038;-93
2023/11/27 07:17:37;;;;;;;0.10;0.10;;;;;;;3.15;54.78;101322.72;4976639;28;20484;-85
2023/11/27 07:20:04;;;;;;;0.20;0.20;;;;;;;3.28;54.74;101330.31;4955453;28;20105;-88
2023/11/27 07:22:30;;;;;;;0.10;0.10;;;;;;;3.22;54.44;101308.16;4972990;28;20428;-91
2023/11/27 07:24:56;;;;;;;0.20;0.20;;;;;;;3.47;54.91;101336.97;4962274;28;20034;-90
2023/11/27 07:27:22;;;;;;;0.20;0.20;;;;;;;3.66;54.27;101332.53;4974533;28;20045;-86
2023/11/27 07:29:48;;;;;;;0.20;0.20;;;;;;;3.69;53.72;101333.34;4958488;28;20030;-90
2023/11/27 07:32:15;;;;;;;0.20;0.20;;;;;;;3.70;53.50;101332.47;4976855;28;20072;-92
2023/11/27 07:34:42;;;;;;;0.10;0.10;;;;;;;3.63;52.88;101333.38;4978373;28;20117;-91
2023/11/27 07:37:08;;;;;;;0.20;0.20;;;;;;;3.56;52.40;101326.66;4977626;28;20037;-90
2023/11/27 07:39:33;;;;;;;0.20;0.20;;;;;;;3.65;52.15;101339.38;4960981;28;20034;-90
2023/11/27 07:41:59;;;;;;;0.20;0.20;;;;;;;3.81;52.51;101328.97;4975190;28;20556;-89
2023/11/27 07:44:25;;;;;;;0.20;0.20;;;;;;;3.62;52.22;101318.91;4984975;28;20069;-88
2023/11/27 07:46:50;;;;;;;0.20;0.20;;;;;;;3.77;50.99;101319.63;5013407;28;20045;-91
2023/11/27 07:49:17;;;;;;;0.20;0.20;;;;;;;3.88;51.60;101308.44;5010284;28;20503;-89
2023/11/27 07:51:42;;;;;;;0.20;0.20;;;;;;;4.02;51.28;101305.69;4966610;28;20040;-90
2023/11/27 07:54:08;;;;;;;0.20;0.20;;;;;;;4.12;50.57;101301.31;5013604;28;20034;-90
2023/11/27 07:56:33;;;;;;;0.20;0.20;;;;;;;4.11;50.07;101286.84;4997056;28;20042;-87
2023/11/27 07:59:00;;;;;;;0.20;0.20;;;;;;;4.24;49.67;101306.31;5007782;28;20053;-90
2023/11/27 08:01:25;;;;;;;0.20;0.20;;;;;;;4.23;50.32;101296.94;4979984;28;20061;-85
2023/11/27 08:03:51;;;;;;;0.20;0.20;;;;;;;4.40;49.56;101302.69;4996496;28;20037;-88
2023/11/27 08:06:17;;;;;;;0.10;0.10;;;;;;;4.46;49.07;101278.72;4997586;28;20065;-87
2023/11/27 08:08:43;;;;;;;0.20;0.20;;;;;;;4.58;48.37;101286.22;4987305;28;20025;-85
2023/11/27 08:11:11;;;;;;;0.10;0.10;;;;;;;4.70;47.95;101287.78;4989032;28;20508;-86
2023/11/27 08:13:37;;;;;;;0.10;0.10;;;;;;;4.88;47.06;101284.94;5003300;28;20022;-86
2023/11/27 08:16:04;;;;;;;0.20;0.20;;;;;;;4.95;46.07;101293.41;4983847;28;20108;-92
2023/11/27 08:18:29;;;;;;;0.20;0.20;;;;;;;4.83;45.66;101259.41;5014376;28;20030;-87
2023/11/27 08:20:56;;;;;;;0.20;0.20;;;;;;;4.83;45.57;101292.72;4999880;28;20128;-92
2023/11/27 08:23:24;;;;;;;0.20;0.20;;;;;;;5.04;45.40;101280.44;4996160;28;20431;-85
2023/11/27 08:25:49;;;;;;;0.20;0.20;;;;;;;5.08;45.53;101275.22;4985488;28;20030;-87
2023/11/27 08:28:15;;;;;;;0.20;0.20;;;;;;;5.10;45.17;101290.59;4986240;28;20044;-85
2023/11/27 08:30:41;;;;;;;0.20;0.20;;;;;;;5.07;45.50;101275.25;4986537;28;20117;-83
2023/11/27 08:33:07;;;;;;;0.20;0.20;;;;;;;5.12;44.90;101278.63;5008294;28;20057;-82
2023/11/27 08:35:33;;;;;;;0.20;0.20;;;;;;;5.17;45.05;101276.81;5010013;28;20026;-83
2023/11/27 08:37:59;;;;;;;0.20;0.20;;;;;;;5.19;44.75;101286.16;5011012;28;20033;-83
2023/11/27 08:40:25;;;;;;;0.20;0.20;;;;;;;5.12;44.33;101273.47;4981348;28;20036;-93
2023/11/27 08:42:51;;;;;;;0.20;0.20;;;;;;;5.32;44.35;101280.84;4995363;28;20037;-90
2023/11/27 08:45:17;;;;;;;0.20;0.20;;;;;;;5.42;44.74;101280.66;4987614;28;20042;-87
2023/11/27 08:47:52;;;;;;;0.20;0.20;;;;;;;5.54;43.82;101289.00;5014946;28;20029;-86
2023/11/27 08:50:19;;;;;;;0.20;0.20;;;;;;;5.53;44.73;101277.91;4976384;28;20428;-83
2023/11/27 08:52:45;;;;;;;0.20;0.20;;;;;;;5.49;44.27;101265.97;5008099;28;20097;-82
2023/11/27 08:55:10;;;;;;;0.20;0.20;;;;;;;5.32;43.53;101271.44;4997222;28;20040;-89
2023/11/27 08:57:36;;;;;;;0.10;0.10;;;;;;;5.31;43.57;101267.19;4978250;28;20038;-83
2023/11/27 09:00:05;;;;;;;0.20;0.20;;;;;;;5.51;43.20;101277.09;4984200;28;20524;-88
2023/11/27 09:02:30;;;;;;;0.20;0.20;;;;;;;5.42;43.29;101256.72;4991786;28;20035;-84
2023/11/27 09:04:56;;;;;;;0.20;0.20;;;;;;;5.53;43.56;101269.38;4992879;28;20026;-91
2023/11/27 09:07:22;;;;;;;0.20;0.20;;;;;;;5.54;43.47;101256.50;4997346;28;20029;-92
2023/11/27 09:09:48;;;;;;;0.20;0.20;;;;;;;5.54;43.29;101265.91;4978561;28;20026;-86
2023/11/27 09:12:13;;;;;;;0.20;0.20;;;;;;;5.59;43.57;101258.97;4978645;28;20038;-86
2023/11/27 09:14:39;;;;;;;0.20;0.20;;;;;;;5.47;44.46;101234.38;5020624;28;20041;-86
2023/11/27 09:17:04;;;;;;;0.20;0.20;;;;;;;5.81;44.99;101264.56;5009558;28;20503;-85
2023/11/27 09:19:30;;;;;;;0.20;0.20;;;;;;;5.77;44.66;101263.75;4993973;28;20388;-88
2023/11/27 09:21:59;;;;;;;0.20;0.20;;;;;;;5.78;45.27;101259.47;4989605;28;20080;-88
2023/11/27 09:24:24;;;;;;;0.20;0.20;;;;;;;5.76;44.43;101264.66;4982590;28;20021;-88
2023/11/27 09:26:50;;;;;;;0.20;0.20;;;;;;;5.63;43.93;101252.91;5002094;28;20480;-83
2023/11/27 09:29:16;;;;;;;0.20;0.20;;;;;;;5.58;43.98;101227.31;5019274;28;20511;-83
2023/11/27 09:31:41;;;;;;;0.20;0.20;;;;;;;5.68;43.22;101243.41;5020339;28;20459;-84
2023/11/27 09:34:07;;;;;;;0.20;0.20;;;;;;;5.78;44.28;101244.91;5010739;28;20145;-88
2023/11/27 09:36:33;;;;;;;0.20;0.20;;;;;;;5.58;43.20;101223.91;5008745;28;20060;-86
2023/11/27 09:38:59;;;;;;;0.20;0.20;;;;;;;5.66;42.88;101255.41;5017774;28;20057;-89
2023/11/27 09:41:24;;;;;;;0.20;0.20;;;;;;;5.34;42.87;101192.72;4999470;28;20104;-88
2023/11/27 09:43:50;;;;;;;0.20;0.20;;;;;;;5.68;42.88;101220.28;5001952;28;20049;-85
2023/11/27 09:46:19;;;;;;;0.20;0.20;;;;;;;5.70;42.75;101229.69;4994096;28;20057;-89
2023/11/27 09:48:44;;;;;;;0.20;0.20;;;;;;;5.92;41.78;101224.16;5010771;28;20026;-90
2023/11/27 09:51:13;;;;;;;0.20;0.20;;;;;;;5.95;41.05;101232.63;5004821;28;20061;-90
2023/11/27 09:54:18;;;;;;;0.20;0.20;;;;;;;5.86;41.63;101245.63;5002232;28;20048;-90
2023/11/27 09:56:44;;;;;;;0.20;0.20;;;;;;;5.71;41.83;101222.81;5019079;28;20025;-88
2023/11/27 09:59:09;;;;;;;0.20;0.20;;;;;;;5.95;41.88;101219.78;5027493;28;20056;-89
2023/11/27 10:01:35;;;;;;;0.20;0.20;;;;;;;5.95;41.60;101211.25;5011811;28;20037;-86
2023/11/27 10:04:06;;;;;;;0.20;0.20;;;;;;;6.12;40.95;101213.47;5004520;28;20034;-87
2023/11/27 10:06:33;;;;;;;0.20;0.20;;;;;;;6.27;41.37;101188.28;5010571;28;20108;-90
2023/11/27 10:09:04;;;;;;;0.20;0.20;;;;;;;6.51;41.06;101191.19;5002353;28;20474;-87
2023/11/27 10:11:33;;;;;;;0.20;0.20;;;;;;;6.61;41.46;101195.22;4993238;28;20053;-86
2023/11/27 10:14:10;;;;;;;0.20;0.20;;;;;;;6.41;40.58;101197.41;4991959;28;20056;-87
2023/11/27 10:16:36;;;;;;;0.20;0.20;;;;;;;6.44;41.23;101190.47;5008664;28;20034;-85
2023/11/27 10:19:06;;;;;;;0.20;0.20;;;;;;;6.52;40.96;101196.28;5010349;28;20037;-89
2023/11/27 10:21:35;;;;;;;0.20;0.20;;;;;;;6.67;40.73;101192.50;4995349;28;20026;-84
2023/11/27 10:24:01;;;;;;;0.20;0.20;;;;;;;6.65;41.01;101193.41;4976615;28;20038;-83
2023/11/27 10:26:31;;;;;;;0.20;0.20;;;;;;;6.61;40.83;101197.81;4994112;28;20030;-86
2023/11/27 10:28:57;;;;;;;0.20;0.20;;;;;;;6.59;40.90;101195.28;4977160;28;20025;-87
2023/11/27 10:31:24;;;;;;;0.20;0.20;;;;;;;7.00;41.21;101193.41;5014075;28;20099;-94
2023/11/27 10:33:50;;;;;;;0.20;0.20;;;;;;;6.97;41.04;101184.91;4995914;28;20029;-92
2023/11/27 10:36:23;;;;;;;0.20;0.20;;;;;;;6.74;41.56;101186.34;4992788;28;20042;-89
2023/11/27 10:39:14;;;;;;;0.20;0.20;;;;;;;6.84;40.99;101162.06;5007426;28;20030;-82
2023/11/27 10:41:43;;;;;;;0.20;0.20;;;;;;;6.87;41.49;101181.72;4993145;28;20096;-88
2023/11/27 10:44:08;;;;;;;0.20;0.20;;;;;;;6.85;41.88;101175.78;5008540;28;20182;-90
2023/11/27 10:46:35;;;;;;;0.20;0.20;;;;;;;7.06;41.96;101175.22;4985484;28;20045;-88
2023/11/27 10:49:01;;;;;;;0.10;0.10;;;;;;;7.02;40.92;101168.50;4992022;28;20574;-84
2023/11/27 10:51:31;;;;;;;0.20;0.20;;;;;;;6.84;40.85;101163.81;4986041;28;20025;-85
2023/11/27 10:53:58;;;;;;;0.20;0.20;;;;;;;6.94;40.79;101161.84;4976610;28;20037;-86
2023/11/27 10:56:27;;;;;;;0.20;0.20;;;;;;;6.88;40.49;101153.41;4971346;28;20472;-86
2023/11/27 10:59:09;;;;;;;0.20;0.20;;;;;;;6.84;40.75;101148.38;4992425;28;20030;-84
2023/11/27 11:01:39;;;;;;;0.20;0.20;;;;;;;6.87;41.93;101153.44;5001935;28;20144;-81
2023/11/27 11:04:19;;;;;;;0.20;0.20;;;;;;;7.09;41.29;101149.44;4996030;28;20046;-83
2023/11/27 11:06:45;;;;;;;0.20;0.20;;;;;;;7.01;40.67;101120.50;5011937;28;20055;-82
2023/11/27 11:09:13;;;;;;;0.20;0.20;;;;;;;7.31;40.32;101141.16;4990843;28;20037;-84
2023/11/27 11:11:40;;;;;;;0.10;0.10;;;;;;;7.39;41.19;101132.34;5027860;28;20072;-82
2023/11/27 11:14:07;;;;;;;0.20;0.20;;;;;;;7.46;40.62;101127.84;5008899;28;20031;-84
2023/11/27 11:16:42;;;;;;;0.20;0.20;;;;;;;7.39;40.71;101139.22;4984911;28;20104;-86
2023/11/27 11:19:12;;;;;;;0.20;0.20;;;;;;;7.54;40.07;101136.19;5002500;28;20034;-83
2023/11/27 11:22:05;;;;;;;0.20;0.20;;;;;;;7.66;40.62;101120.41;4996017;28;20136;-84
2023/11/27 11:24:31;;;;;;;;;;;;;;;7.66;40.34;101132.44;4996326;28;20519;-84
2023/11/27 11:27:16;;;;;;;0.20;0.20;;;;;;;7.55;40.22;101129.31;5013263;28;19917;-85
2023/11/27 11:29:46;;;;;;;0.20;0.20;;;;;;;7.56;40.17;101139.56;5011976;28;20018;-89
2023/11/27 11:32:14;;;;;;;0.20;0.20;;;;;;;7.50;39.90;101126.03;4980474;28;20519;-87